createdAt,value
2023-01-31T00:01:40.216Z,3.17
2023-01-31T00:04:12.370Z,3.35
2023-01-31T00:06:43.101Z,3.72
2023-01-31T00:09:12.060Z,3.55
2023-01-31T00:11:39.234Z,3.30
2023-01-31T00:14:08.093Z,2.72
2023-01-31T00:16:35.127Z,3.40
2023-01-31T00:19:02.595Z,3.47
2023-01-31T00:21:30.970Z,3.92
2023-01-31T00:23:58.765Z,4.13
2023-01-31T00:26:31.205Z,3.75
2023-01-31T00:29:00.351Z,3.50
2023-01-31T00:31:30.803Z,3.45
2023-01-31T00:33:58.705Z,4.30
2023-01-31T00:36:34.810Z,3.60
2023-01-31T00:39:04.440Z,4.18
2023-01-31T00:41:32.005Z,3.22
2023-01-31T00:43:59.133Z,4.35
2023-01-31T00:46:26.759Z,3.50
2023-01-31T00:48:55.628Z,3.35
2023-01-31T00:51:26.483Z,3.25
2023-01-31T00:53:54.106Z,4.30
2023-01-31T00:56:23.510Z,4.00
2023-01-31T00:58:51.069Z,3.40
2023-01-31T01:01:28.016Z,3.70
2023-01-31T01:03:57.244Z,3.55
2023-01-31T01:06:24.468Z,3.05
2023-01-31T01:08:51.495Z,3.17
2023-01-31T01:11:25.741Z,3.03
2023-01-31T01:16:23.519Z,2.63
2023-01-31T01:18:50.915Z,2.80
2023-01-31T01:21:23.906Z,2.85
2023-01-31T01:23:51.695Z,2.72
2023-01-31T01:26:26.103Z,3.33
2023-01-31T01:28:54.890Z,2.95
2023-01-31T01:31:23.093Z,3.13
2023-01-31T01:33:50.227Z,2.97
2023-01-31T01:36:21.981Z,2.58
2023-01-31T01:38:49.388Z,2.45
2023-01-31T01:41:16.874Z,2.47
2023-01-31T01:43:49.177Z,2.97
2023-01-31T01:46:26.724Z,2.72
2023-01-31T01:49:19.263Z,3.05
2023-01-31T01:51:48.035Z,3.33
2023-01-31T01:54:22.820Z,3.35
2023-01-31T01:56:56.229Z,3.17
2023-01-31T01:59:30.416Z,4.03
2023-01-31T02:04:32.265Z,5.00
2023-01-31T02:07:00.338Z,4.30
2023-01-31T02:10:09.954Z,2.85
2023-01-31T02:12:36.788Z,3.65
2023-01-31T02:15:04.051Z,3.08
2023-01-31T02:17:30.845Z,4.18
2023-01-31T02:20:17.094Z,3.97
2023-01-31T02:23:37.208Z,3.80
2023-01-31T02:26:51.560Z,2.47
2023-01-31T02:30:01.997Z,3.45
2023-01-31T02:33:07.882Z,3.28
2023-01-31T02:36:02.470Z,3.55
2023-01-31T02:38:43.236Z,3.72
2023-01-31T02:41:42.112Z,4.13
2023-01-31T02:45:00.200Z,3.25
2023-01-31T02:47:49.057Z,2.60
2023-01-31T02:50:37.957Z,2.30
2023-01-31T02:53:30.509Z,3.22
2023-01-31T02:56:30.631Z,2.95
2023-01-31T02:59:08.971Z,2.40
2023-01-31T03:01:45.526Z,2.15
2023-01-31T03:04:14.277Z,3.47
2023-01-31T03:06:59.688Z,2.47
2023-01-31T03:10:06.595Z,3.60
2023-01-31T03:13:02.740Z,2.85
2023-01-31T03:16:01.787Z,3.33
2023-01-31T03:18:52.337Z,2.67
2023-01-31T03:21:44.658Z,3.65
2023-01-31T03:24:14.363Z,2.88
2023-01-31T03:26:41.927Z,3.25
2023-01-31T03:29:11.412Z,3.38
2023-01-31T03:32:08.936Z,3.28
2023-01-31T03:34:36.251Z,3.08
2023-01-31T03:37:12.857Z,2.88
2023-01-31T03:40:19.460Z,3.20
2023-01-31T03:43:04.009Z,2.53
2023-01-31T03:48:14.319Z,2.22
2023-01-31T03:50:48.343Z,3.72
2023-01-31T03:53:32.762Z,3.25
2023-01-31T03:56:40.405Z,2.67
2023-01-31T03:59:24.554Z,3.60
2023-01-31T04:01:55.656Z,3.97
2023-01-31T04:04:32.939Z,3.05
2023-01-31T04:07:01.097Z,3.30
2023-01-31T04:09:27.947Z,3.42
2023-01-31T04:11:54.720Z,3.58
2023-01-31T04:14:21.517Z,2.80
2023-01-31T04:16:48.291Z,3.08
2023-01-31T04:19:15.066Z,2.72
2023-01-31T04:21:41.926Z,3.22
2023-01-31T04:24:10.309Z,3.03
2023-01-31T04:26:37.513Z,3.17
2023-01-31T04:29:04.876Z,3.13
2023-01-31T04:31:32.448Z,3.42
2023-01-31T04:33:59.755Z,3.15
2023-01-31T04:36:26.903Z,3.33
2023-01-31T04:38:53.675Z,2.88
2023-01-31T04:41:20.479Z,3.65
2023-01-31T04:43:47.499Z,3.15
2023-01-31T04:46:14.275Z,3.75
2023-01-31T04:48:41.357Z,3.35
2023-01-31T04:51:08.620Z,3.60
2023-01-31T04:53:35.521Z,3.00
2023-01-31T04:56:03.855Z,4.55
2023-01-31T04:58:30.929Z,3.67
2023-01-31T05:00:57.972Z,3.85
2023-01-31T05:03:24.910Z,2.95
2023-01-31T05:05:51.691Z,2.88
2023-01-31T05:08:18.462Z,2.55
2023-01-31T05:10:45.279Z,2.38
2023-01-31T05:13:12.128Z,2.92
2023-01-31T05:15:40.489Z,3.88
2023-01-31T05:18:07.259Z,3.03
2023-01-31T05:20:39.758Z,2.15
2023-01-31T05:23:07.537Z,2.55
2023-01-31T05:25:36.757Z,2.38
2023-01-31T05:28:05.195Z,3.35
2023-01-31T05:30:32.590Z,2.83
2023-01-31T05:32:59.515Z,3.22
2023-01-31T05:35:26.319Z,3.17
2023-01-31T05:37:56.247Z,3.72
2023-01-31T05:40:23.305Z,2.95
2023-01-31T05:43:00.511Z,2.80
2023-01-31T05:45:28.577Z,2.53
2023-01-31T05:47:55.648Z,2.60
2023-01-31T05:50:23.000Z,2.30
2023-01-31T05:52:55.115Z,3.30
2023-01-31T05:55:22.828Z,3.85
2023-01-31T05:57:49.781Z,2.70
2023-01-31T06:00:17.088Z,3.00
2023-01-31T06:02:44.180Z,2.80
2023-01-31T06:05:11.905Z,3.10
2023-01-31T06:07:39.122Z,2.70
2023-01-31T06:10:08.311Z,3.17
2023-01-31T06:12:35.485Z,2.65
2023-01-31T06:15:02.749Z,2.85
2023-01-31T06:17:30.599Z,2.97
2023-01-31T06:19:58.238Z,2.65
2023-01-31T06:22:25.066Z,2.42
2023-01-31T06:24:51.833Z,2.72
2023-01-31T06:27:18.588Z,3.83
2023-01-31T06:29:45.333Z,5.95
2023-01-31T06:32:12.152Z,2.78
2023-01-31T06:34:38.910Z,2.70
2023-01-31T06:37:10.004Z,2.80
2023-01-31T06:39:36.985Z,3.38
2023-01-31T06:42:04.391Z,3.00
2023-01-31T06:44:33.106Z,2.65
2023-01-31T06:47:01.574Z,3.75
2023-01-31T06:49:28.451Z,3.25
2023-01-31T06:51:55.619Z,2.90
2023-01-31T06:54:22.456Z,4.30
2023-01-31T06:56:49.443Z,3.60
2023-01-31T06:59:16.187Z,3.42
2023-01-31T07:01:43.118Z,2.72
2023-01-31T07:04:09.915Z,3.17
2023-01-31T07:06:36.698Z,3.05
2023-01-31T07:09:03.843Z,2.55
2023-01-31T07:11:31.454Z,3.58
2023-01-31T07:13:58.284Z,2.60
2023-01-31T07:16:25.923Z,3.42
2023-01-31T07:18:54.280Z,3.03
2023-01-31T07:21:23.065Z,2.42
2023-01-31T07:23:51.012Z,2.35
2023-01-31T07:26:17.878Z,3.60
2023-01-31T07:28:44.684Z,3.00
2023-01-31T07:31:14.335Z,3.05
2023-01-31T07:33:41.520Z,4.28
2023-01-31T07:36:12.208Z,3.33
2023-01-31T07:38:39.046Z,3.13
2023-01-31T07:41:05.903Z,4.72
2023-01-31T07:43:33.283Z,3.78
2023-01-31T07:46:00.146Z,3.60
2023-01-31T07:48:27.768Z,3.88
2023-01-31T07:51:00.986Z,3.47
2023-01-31T07:53:31.911Z,3.63
2023-01-31T07:56:18.289Z,4.20
2023-01-31T07:58:47.385Z,4.05
2023-01-31T08:01:38.787Z,5.32
2023-01-31T08:04:21.049Z,4.60
2023-01-31T08:06:51.939Z,4.03
2023-01-31T08:09:18.740Z,4.28
2023-01-31T08:11:46.082Z,4.68
2023-01-31T08:14:12.926Z,5.15
2023-01-31T08:16:39.798Z,4.22
2023-01-31T08:19:06.590Z,4.55
2023-01-31T08:21:33.367Z,4.50
2023-01-31T08:24:00.133Z,4.95
2023-01-31T08:26:27.091Z,5.03
2023-01-31T08:28:54.394Z,4.32
2023-01-31T08:31:25.284Z,4.78
2023-01-31T08:33:53.303Z,4.63
2023-01-31T08:36:22.675Z,4.93
2023-01-31T08:38:50.558Z,4.70
2023-01-31T08:41:19.835Z,4.68
2023-01-31T08:43:57.970Z,4.80
2023-01-31T08:46:31.525Z,5.32
2023-01-31T08:49:00.338Z,5.15
2023-01-31T08:51:27.146Z,5.50
2023-01-31T08:53:54.299Z,5.28
2023-01-31T08:56:25.320Z,5.15
2023-01-31T08:58:53.391Z,6.15
2023-01-31T09:01:21.399Z,4.55
2023-01-31T09:03:50.302Z,5.05
2023-01-31T09:06:20.425Z,5.40
2023-01-31T09:08:47.354Z,5.35
2023-01-31T09:11:19.180Z,4.72
2023-01-31T09:13:50.975Z,5.07
2023-01-31T09:16:18.726Z,5.95
2023-01-31T09:18:45.501Z,5.28
2023-01-31T09:21:19.320Z,5.55
2023-01-31T09:23:47.614Z,5.35
2023-01-31T09:26:16.050Z,5.97
2023-01-31T09:28:43.286Z,4.88
2023-01-31T09:31:17.157Z,6.10
2023-01-31T09:33:44.593Z,5.60
2023-01-31T09:36:16.129Z,5.10
2023-01-31T09:38:43.070Z,5.40
2023-01-31T09:41:37.496Z,5.53
2023-01-31T09:44:13.282Z,5.90
2023-01-31T09:46:55.568Z,5.40
2023-01-31T09:49:43.017Z,6.90
2023-01-31T09:52:11.218Z,6.28
2023-01-31T09:54:40.810Z,6.75
2023-01-31T09:57:27.344Z,5.82
2023-01-31T10:00:17.905Z,6.72
2023-01-31T10:03:06.250Z,7.93
2023-01-31T10:05:50.024Z,7.05
2023-01-31T10:09:03.979Z,6.00
2023-01-31T10:11:52.743Z,6.55
2023-01-31T10:14:34.602Z,6.53
2023-01-31T10:17:13.261Z,6.20
2023-01-31T10:20:29.224Z,6.70
2023-01-31T10:23:24.363Z,5.25
2023-01-31T10:25:59.501Z,6.28
2023-01-31T10:28:36.694Z,5.30
2023-01-31T10:31:50.268Z,6.00
2023-01-31T10:34:25.115Z,5.47
2023-01-31T10:37:02.965Z,6.07
2023-01-31T10:39:44.783Z,5.55
2023-01-31T10:42:33.193Z,5.70
2023-01-31T10:45:15.187Z,5.28
2023-01-31T10:48:01.376Z,5.63
2023-01-31T10:50:57.452Z,4.32
2023-01-31T10:53:37.347Z,4.63
2023-01-31T10:56:16.282Z,4.63
2023-01-31T10:58:43.537Z,5.53
2023-01-31T11:01:14.539Z,5.22
2023-01-31T11:03:53.983Z,5.45
2023-01-31T11:06:22.025Z,6.78
2023-01-31T11:09:03.109Z,5.97
2023-01-31T11:11:30.141Z,6.57
2023-01-31T11:14:06.234Z,6.05
2023-01-31T11:16:39.648Z,5.70
2023-01-31T11:19:29.222Z,5.70
2023-01-31T11:21:56.603Z,5.18
2023-01-31T11:24:31.268Z,6.25
2023-01-31T11:27:06.992Z,6.68
2023-01-31T11:29:47.464Z,6.00
2023-01-31T11:32:21.596Z,6.10
2023-01-31T11:35:12.643Z,4.70
2023-01-31T11:38:01.436Z,4.68
2023-01-31T11:40:39.805Z,5.97
2023-01-31T11:43:21.139Z,5.57
2023-01-31T11:46:00.146Z,5.00
2023-01-31T11:48:37.002Z,5.60
2023-01-31T11:51:04.900Z,5.60
2023-01-31T11:53:47.332Z,5.53
2023-01-31T11:56:23.040Z,6.28
2023-01-31T11:58:54.113Z,5.20
2023-01-31T12:01:23.300Z,6.00
2023-01-31T12:04:03.176Z,6.60
2023-01-31T12:06:40.174Z,6.47
2023-01-31T12:09:25.553Z,5.72
2023-01-31T12:11:59.850Z,5.95
2023-01-31T12:14:40.114Z,7.35
2023-01-31T12:17:14.107Z,5.97
2023-01-31T12:20:27.682Z,6.65
2023-01-31T12:23:12.832Z,5.57
2023-01-31T12:26:16.490Z,6.45
2023-01-31T12:29:49.266Z,6.57
2023-01-31T12:32:54.440Z,6.03
2023-01-31T12:39:15.031Z,5.03
2023-01-31T12:41:53.987Z,6.13
2023-01-31T12:44:50.119Z,6.97
2023-01-31T12:48:07.454Z,6.45
2023-01-31T12:50:48.661Z,6.72
2023-01-31T12:53:50.675Z,7.03
2023-01-31T12:56:30.034Z,6.40
2023-01-31T12:59:17.206Z,6.43
2023-01-31T13:02:16.694Z,6.53
2023-01-31T13:05:02.896Z,6.50
2023-01-31T13:07:38.237Z,7.47
2023-01-31T13:10:38.884Z,7.25
2023-01-31T13:13:14.398Z,6.53
2023-01-31T13:15:50.254Z,6.45
2023-01-31T13:18:19.610Z,6.40
2023-01-31T13:20:54.671Z,6.90
2023-01-31T13:23:31.688Z,6.55
2023-01-31T13:26:09.685Z,7.20
2023-01-31T13:28:46.750Z,6.90
2023-01-31T13:31:30.745Z,7.57
2023-01-31T13:34:12.895Z,7.45
2023-01-31T13:36:51.113Z,7.40
2023-01-31T13:39:31.124Z,8.40
2023-01-31T13:41:58.394Z,7.63
2023-01-31T13:44:25.184Z,8.82
2023-01-31T13:47:08.068Z,8.02
2023-01-31T13:49:40.046Z,7.85
2023-01-31T13:52:34.918Z,7.07
2023-01-31T13:55:20.090Z,7.07
2023-01-31T13:57:57.159Z,8.43
2023-01-31T14:00:40.127Z,8.00
2023-01-31T14:03:13.498Z,8.93
2023-01-31T14:05:44.591Z,8.50
2023-01-31T14:08:36.322Z,8.10
2023-01-31T14:11:17.850Z,7.43
2023-01-31T14:13:47.373Z,8.80
2023-01-31T14:16:43.171Z,7.43
2023-01-31T14:19:19.028Z,7.18
2023-01-31T14:22:03.506Z,7.22
2023-01-31T14:24:53.212Z,7.00
2023-01-31T14:27:30.461Z,7.30
2023-01-31T14:30:06.328Z,6.82
2023-01-31T14:32:44.838Z,6.63
2023-01-31T14:35:14.497Z,6.95
2023-01-31T14:38:04.682Z,6.82
2023-01-31T14:41:08.144Z,7.32
2023-01-31T14:44:12.065Z,6.03
2023-01-31T14:47:16.239Z,6.43
2023-01-31T14:50:16.611Z,5.85
2023-01-31T14:53:16.874Z,5.88
2023-01-31T14:56:27.689Z,6.25
2023-01-31T14:58:55.035Z,5.43
2023-01-31T15:01:32.536Z,5.72
2023-01-31T15:03:59.598Z,5.60
2023-01-31T15:06:30.696Z,4.82
2023-01-31T15:09:15.941Z,5.22
2023-01-31T15:11:46.324Z,4.85
2023-01-31T15:14:44.834Z,5.55
2023-01-31T15:17:34.500Z,4.65
2023-01-31T15:20:14.624Z,4.97
2023-01-31T15:22:42.743Z,4.80
2023-01-31T15:25:28.895Z,4.78
2023-01-31T15:27:57.438Z,5.35
2023-01-31T15:30:25.879Z,5.38
2023-01-31T15:33:29.103Z,4.78
2023-01-31T15:36:08.815Z,5.00
2023-01-31T15:38:56.911Z,5.28
2023-01-31T15:41:26.930Z,5.15
2023-01-31T15:43:56.782Z,5.72
2023-01-31T15:46:32.091Z,6.20
2023-01-31T15:49:00.256Z,5.18
2023-01-31T15:51:27.995Z,5.32
2023-01-31T15:54:06.791Z,5.53
2023-01-31T15:56:40.498Z,5.55
2023-01-31T15:59:14.035Z,5.97
2023-01-31T16:01:48.505Z,5.30
2023-01-31T16:04:15.297Z,5.82
2023-01-31T16:06:42.256Z,5.70
2023-01-31T16:09:30.699Z,6.18
2023-01-31T16:12:02.450Z,5.80
2023-01-31T16:14:30.088Z,6.13
2023-01-31T16:16:58.509Z,6.13
2023-01-31T16:19:33.695Z,6.38
2023-01-31T16:22:00.533Z,6.57
2023-01-31T16:24:27.919Z,7.28
2023-01-31T16:27:15.582Z,7.03
2023-01-31T16:29:47.464Z,6.65
2023-01-31T16:32:24.144Z,6.97
2023-01-31T16:35:09.563Z,7.60
2023-01-31T16:37:43.279Z,6.68
2023-01-31T16:40:24.998Z,6.63
2023-01-31T16:43:11.499Z,6.18
2023-01-31T16:45:38.393Z,6.47
2023-01-31T16:48:29.822Z,6.78
2023-01-31T16:50:59.368Z,6.20
2023-01-31T16:53:40.060Z,5.53
2023-01-31T16:56:21.818Z,4.50
2023-01-31T16:58:52.956Z,4.28
2023-01-31T17:01:27.439Z,3.97
2023-01-31T17:04:15.829Z,4.20
2023-01-31T17:06:47.855Z,6.65
2023-01-31T17:09:20.493Z,5.70
2023-01-31T17:11:47.613Z,4.03
2023-01-31T17:14:14.403Z,2.35
2023-01-31T17:16:41.158Z,1.85
2023-01-31T17:19:07.948Z,1.60
2023-01-31T17:21:40.953Z,2.15
2023-01-31T17:24:17.764Z,2.17
2023-01-31T17:26:44.883Z,2.83
2023-01-31T17:29:12.319Z,2.30
2023-01-31T17:31:39.333Z,2.47
2023-01-31T17:34:13.452Z,2.55
2023-01-31T17:36:40.241Z,2.65
2023-01-31T17:39:07.755Z,2.70
2023-01-31T17:41:34.869Z,2.70
2023-01-31T17:44:06.427Z,2.83
2023-01-31T17:46:33.665Z,3.15
2023-01-31T17:49:00.496Z,2.80
2023-01-31T17:51:27.343Z,2.95
2023-01-31T17:53:54.116Z,2.47
2023-01-31T17:56:21.163Z,3.28
2023-01-31T17:58:49.262Z,2.85
2023-01-31T18:01:16.257Z,2.92
2023-01-31T18:03:43.295Z,3.00
2023-01-31T18:06:10.695Z,3.08
2023-01-31T18:08:37.824Z,2.95
2023-01-31T18:11:16.695Z,2.60
2023-01-31T18:13:44.240Z,3.10
2023-01-31T18:16:15.694Z,4.55
2023-01-31T18:18:45.741Z,3.88
2023-01-31T18:21:16.370Z,4.03
2023-01-31T18:23:43.679Z,3.70
2023-01-31T18:26:11.456Z,3.53
2023-01-31T18:28:38.233Z,3.78
2023-01-31T18:31:10.595Z,3.47
2023-01-31T18:33:37.734Z,3.90
2023-01-31T18:36:05.882Z,3.13
2023-01-31T18:38:33.081Z,3.47
2023-01-31T18:41:02.341Z,3.15
2023-01-31T18:43:30.439Z,3.80
2023-01-31T18:45:57.228Z,3.05
2023-01-31T18:48:24.027Z,3.10
2023-01-31T18:50:50.877Z,3.10
2023-01-31T18:53:17.644Z,3.72
2023-01-31T18:55:44.449Z,3.42
2023-01-31T18:58:11.242Z,2.97
2023-01-31T19:00:38.018Z,2.92
2023-01-31T19:03:04.806Z,2.72
2023-01-31T19:05:31.556Z,3.38
2023-01-31T19:07:58.308Z,2.65
2023-01-31T19:10:25.096Z,2.40
2023-01-31T19:12:51.878Z,3.00
2023-01-31T19:15:18.768Z,3.47
2023-01-31T19:17:45.635Z,3.85
2023-01-31T19:20:12.719Z,3.70
2023-01-31T19:22:39.546Z,3.28
2023-01-31T19:25:09.052Z,3.53
2023-01-31T19:27:35.893Z,2.75
2023-01-31T19:30:02.795Z,2.95
2023-01-31T19:32:30.983Z,3.30
2023-01-31T19:34:57.763Z,3.75
2023-01-31T19:37:24.547Z,3.08
2023-01-31T19:39:51.303Z,2.92
2023-01-31T19:42:18.416Z,3.22
2023-01-31T19:44:45.688Z,3.13
2023-01-31T19:47:12.546Z,4.72
2023-01-31T19:49:39.310Z,4.07
2023-01-31T19:52:06.057Z,3.45
2023-01-31T19:54:32.866Z,3.25
2023-01-31T19:56:59.664Z,3.55
2023-01-31T19:59:26.468Z,3.75
2023-01-31T20:01:53.270Z,3.40
2023-01-31T20:04:20.156Z,4.50
2023-01-31T20:06:46.947Z,3.70
2023-01-31T20:09:19.844Z,4.47
2023-01-31T20:11:46.677Z,4.30
2023-01-31T20:14:13.427Z,3.90
2023-01-31T20:16:40.289Z,4.97
2023-01-31T20:19:07.602Z,3.58
2023-01-31T20:21:34.607Z,3.10
2023-01-31T20:24:01.486Z,4.72
2023-01-31T20:26:29.780Z,4.13
2023-01-31T20:28:57.195Z,4.15
2023-01-31T20:31:24.532Z,3.13
2023-01-31T20:33:54.570Z,3.83
2023-01-31T20:36:23.857Z,4.07
2023-01-31T20:38:50.992Z,4.18
2023-01-31T20:41:17.861Z,4.38
2023-01-31T20:43:44.721Z,3.78
2023-01-31T20:46:14.742Z,3.42
2023-01-31T20:48:43.065Z,3.25
2023-01-31T20:51:10.030Z,3.97
2023-01-31T20:53:37.027Z,3.60
2023-01-31T20:56:07.404Z,3.88
2023-01-31T20:58:37.522Z,4.00
2023-01-31T21:01:06.840Z,3.75
2023-01-31T21:03:35.495Z,3.65
2023-01-31T21:06:03.606Z,3.50
2023-01-31T21:08:31.972Z,4.07
2023-01-31T21:10:59.085Z,5.25
2023-01-31T21:13:31.471Z,4.25
2023-01-31T21:16:01.726Z,5.43
2023-01-31T21:18:31.106Z,3.10
2023-01-31T21:20:57.931Z,3.85
2023-01-31T21:23:25.565Z,4.35
2023-01-31T21:25:52.381Z,3.63
2023-01-31T21:28:19.202Z,4.22
2023-01-31T21:30:46.052Z,3.75
2023-01-31T21:33:12.908Z,3.90
2023-01-31T21:35:39.689Z,3.63
2023-01-31T21:38:06.465Z,4.00
2023-01-31T21:40:33.214Z,4.13
2023-01-31T21:43:00.004Z,4.18
2023-01-31T21:45:41.736Z,3.50
2023-01-31T21:48:29.157Z,4.13
2023-01-31T21:50:57.216Z,2.95
2023-01-31T21:53:24.169Z,4.00
2023-01-31T21:55:50.940Z,4.18
2023-01-31T21:58:17.705Z,3.95
2023-01-31T22:00:44.480Z,3.97
2023-01-31T22:03:11.507Z,3.78
2023-01-31T22:05:38.358Z,3.63
2023-01-31T22:08:05.233Z,4.68
2023-01-31T22:10:32.140Z,3.72
2023-01-31T22:12:58.930Z,3.95
2023-01-31T22:15:25.837Z,3.65
2023-01-31T22:17:52.792Z,3.60
2023-01-31T22:20:19.817Z,2.63
2023-01-31T22:22:48.434Z,3.55
2023-01-31T22:25:15.457Z,3.85
2023-01-31T22:27:42.316Z,3.40
2023-01-31T22:30:27.862Z,3.35
2023-01-31T22:32:54.777Z,3.55
2023-01-31T22:35:21.550Z,3.97
2023-01-31T22:37:48.302Z,3.53
2023-01-31T22:40:15.080Z,3.20
2023-01-31T22:42:41.869Z,4.40
2023-01-31T22:45:09.147Z,3.70
2023-01-31T22:47:35.940Z,4.32
2023-01-31T22:50:02.739Z,3.58
2023-01-31T22:52:29.570Z,3.22
2023-01-31T22:54:56.353Z,3.88
2023-01-31T22:57:23.805Z,3.40
2023-01-31T22:59:50.627Z,4.15
2023-01-31T23:02:17.520Z,3.50
2023-01-31T23:04:44.491Z,3.90
2023-01-31T23:07:11.247Z,4.47
2023-01-31T23:09:38.030Z,4.30
2023-01-31T23:12:05.275Z,3.53
2023-01-31T23:14:32.021Z,3.95
2023-01-31T23:17:17.295Z,4.32
2023-01-31T23:19:44.051Z,3.83
2023-01-31T23:22:10.802Z,4.47
2023-01-31T23:24:37.582Z,3.60
2023-01-31T23:27:28.744Z,4.03
2023-01-31T23:38:56.677Z,3.10
2023-01-31T23:41:23.427Z,3.80
2023-01-31T23:43:50.210Z,4.07
2023-01-31T23:46:17.010Z,3.97
2023-01-31T23:48:43.781Z,4.75
2023-01-31T23:51:10.583Z,4.32
2023-01-31T23:53:37.336Z,3.83
2023-01-31T23:56:04.200Z,3.70
2023-01-31T23:58:30.952Z,3.33
